N063SB ENZV-ENBR
Flight info
| Callsign | N063SB |
|---|---|
| Flight time | N/A |
| Altitude | 4000 |
| Route | STAVANGER FLATHOLMEN |
| Aircraft | C152 |
Departure
| Time | 2026-04-27 17:21 |
|---|---|
| Airport | Stavanger Airport, Sola (ENZV) |
Arrival
| Time | N/A |
|---|---|
| Airport | Bergen Airport, Flesland (ENBR) |
| Time | Latitude | Longitude | Altitude | Speed | Heading |
|---|---|---|---|---|---|
| 2026-04-27 17:04 | 58.88505 | 5.63311 | 154 ft | 0 kts | 313° |
| 2026-04-27 17:07 | 58.88521 | 5.63321 | 40 ft | 13 kts | 65° |
| 2026-04-27 17:07 | 58.88546 | 5.63426 | 27 ft | 13 kts | 354° |
| 2026-04-27 17:07 | 58.88675 | 5.63408 | 25 ft | 23 kts | 358° |
| 2026-04-27 17:08 | 58.88867 | 5.63406 | 23 ft | 27 kts | 359° |
| 2026-04-27 17:08 | 58.89037 | 5.63407 | 22 ft | 22 kts | 357° |
| 2026-04-27 17:08 | 58.89182 | 5.63400 | 20 ft | 19 kts | 1° |
| 2026-04-27 17:08 | 58.89308 | 5.63404 | 19 ft | 17 kts | 17° |
| 2026-04-27 17:09 | 58.89345 | 5.63468 | 19 ft | 0 kts | 93° |
| 2026-04-27 17:10 | 58.89340 | 5.63483 | 19 ft | 9 kts | 150° |
| 2026-04-27 17:10 | 58.89273 | 5.63392 | 20 ft | 11 kts | 192° |
| 2026-04-27 17:10 | 58.89083 | 5.63403 | 21 ft | 42 kts | 180° |
| 2026-04-27 17:10 | 58.88805 | 5.63415 | 24 ft | 39 kts | 180° |
| 2026-04-27 17:11 | 58.88547 | 5.63416 | 27 ft | 36 kts | 175° |
| 2026-04-27 17:11 | 58.88070 | 5.63438 | 31 ft | 33 kts | 180° |
| 2026-04-27 17:11 | 58.87888 | 5.63324 | 33 ft | 16 kts | 200° |
| 2026-04-27 17:12 | 58.87861 | 5.63301 | 33 ft | 0 kts | 204° |
| 2026-04-27 17:12 | 58.87809 | 5.63273 | 33 ft | 19 kts | 192° |
| 2026-04-27 17:12 | 58.87765 | 5.63113 | 34 ft | 29 kts | 296° |
| 2026-04-27 17:13 | 58.87845 | 5.62676 | 31 ft | 21 kts | 286° |
| 2026-04-27 17:13 | 58.87857 | 5.62596 | 30 ft | 5 kts | 104° |
| 2026-04-27 17:13 | 58.87861 | 5.62652 | 31 ft | 5 kts | 91° |
| 2026-04-27 17:13 | 58.87832 | 5.62775 | 32 ft | 24 kts | 110° |
| 2026-04-27 17:14 | 58.87772 | 5.63176 | 34 ft | 32 kts | 109° |
| 2026-04-27 17:14 | 58.87702 | 5.63297 | 34 ft | 21 kts | 205° |
| 2026-04-27 17:14 | 58.87584 | 5.63293 | 33 ft | 17 kts | 177° |
| 2026-04-27 17:14 | 58.87439 | 5.63301 | 35 ft | 37 kts | 180° |
| 2026-04-27 17:15 | 58.87183 | 5.63306 | 37 ft | 35 kts | 179° |
| 2026-04-27 17:15 | 58.87029 | 5.63335 | 38 ft | 15 kts | 150° |
| 2026-04-27 17:15 | 58.86958 | 5.63474 | 39 ft | 12 kts | 110° |
| 2026-04-27 17:15 | 58.86954 | 5.63580 | 39 ft | 3 kts | 86° |
| 2026-04-27 17:16 | 58.86954 | 5.63581 | 39 ft | 0 kts | 86° |
| 2026-04-27 17:18 | 58.86954 | 5.63598 | 39 ft | 10 kts | 89° |
| 2026-04-27 17:18 | 58.86990 | 5.63784 | 36 ft | 19 kts | 20° |
| 2026-04-27 17:18 | 58.87093 | 5.63795 | 37 ft | 12 kts | 9° |
| 2026-04-27 17:18 | 58.87126 | 5.63799 | 37 ft | 0 kts | 360° |
| 2026-04-27 17:19 | 58.87187 | 5.63796 | 38 ft | 25 kts | 358° |
| 2026-04-27 17:19 | 58.87442 | 5.63800 | 39 ft | 46 kts | 3° |
| 2026-04-27 17:19 | 58.87750 | 5.63823 | 75 ft | 43 kts | 351° |
| 2026-04-27 17:20 | 58.88024 | 5.63830 | 120 ft | 36 kts | 355° |
| 2026-04-27 17:20 | 58.88280 | 5.63809 | 111 ft | 41 kts | 346° |
| 2026-04-27 17:20 | 58.88567 | 5.63729 | 223 ft | 36 kts | 345° |
| 2026-04-27 17:20 | 58.88855 | 5.63762 | 262 ft | 44 kts | 5° |
| 2026-04-27 17:21 | 58.89138 | 5.63925 | 362 ft | 40 kts | 4° |
| 2026-04-27 17:21 | 58.89429 | 5.63985 | 466 ft | 33 kts | 339° |
| 2026-04-27 17:21 | 58.89746 | 5.64068 | 515 ft | 60 kts | 13° |
| 2026-04-27 17:21 | 58.90058 | 5.64706 | 663 ft | 71 kts | 56° |
| 2026-04-27 17:22 | 58.90142 | 5.65660 | 941 ft | 68 kts | 86° |
| 2026-04-27 17:22 | 58.90060 | 5.66540 | 1189 ft | 66 kts | 84° |
| 2026-04-27 17:22 | 58.90003 | 5.67357 | 1398 ft | 60 kts | 79° |
| 2026-04-27 17:22 | 58.90004 | 5.68331 | 1448 ft | 78 kts | 73° |
| 2026-04-27 17:23 | 58.90118 | 5.69373 | 1570 ft | 79 kts | 64° |
| 2026-04-27 17:23 | 58.90291 | 5.70394 | 1695 ft | 79 kts | 56° |
| 2026-04-27 17:23 | 58.90550 | 5.71277 | 1865 ft | 75 kts | 53° |
| 2026-04-27 17:23 | 58.90788 | 5.72151 | 2017 ft | 74 kts | 56° |
| 2026-04-27 17:24 | 58.91049 | 5.72995 | 2179 ft | 72 kts | 49° |
| 2026-04-27 17:24 | 58.91368 | 5.73778 | 2329 ft | 74 kts | 47° |
| 2026-04-27 17:24 | 58.91714 | 5.74504 | 2478 ft | 76 kts | 38° |
| 2026-04-27 17:24 | 58.92114 | 5.75240 | 2554 ft | 83 kts | 36° |
| 2026-04-27 17:25 | 58.92546 | 5.75899 | 2738 ft | 75 kts | 33° |
| 2026-04-27 17:25 | 58.92968 | 5.76442 | 2899 ft | 71 kts | 16° |
| 2026-04-27 17:25 | 58.93476 | 5.76397 | 3017 ft | 74 kts | 349° |
| 2026-04-27 17:25 | 58.93989 | 5.76111 | 3085 ft | 83 kts | 339° |
| 2026-04-27 17:26 | 58.94552 | 5.75590 | 2904 ft | 96 kts | 338° |
| 2026-04-27 17:26 | 58.95119 | 5.75118 | 2944 ft | 89 kts | 336° |
| 2026-04-27 17:26 | 58.95627 | 5.74724 | 2902 ft | 76 kts | 348° |
| 2026-04-27 17:26 | 58.96139 | 5.74314 | 2800 ft | 81 kts | 325° |
| 2026-04-27 17:27 | 58.96578 | 5.73830 | 3032 ft | 62 kts | 335° |
| 2026-04-27 17:27 | 58.97016 | 5.73494 | 3095 ft | 51 kts | 349° |
| 2026-04-27 17:27 | 58.97342 | 5.73786 | 2270 ft | 102 kts | 42° |
| 2026-04-27 17:27 | 58.97108 | 5.73139 | 1659 ft | 96 kts | 287° |
| 2026-04-27 17:28 | 58.97280 | 5.72752 | 1067 ft | 69 kts | 351° |
| 2026-04-27 17:28 | 58.97636 | 5.72656 | 1170 ft | 9 kts | 327° |
| 2026-04-27 17:28 | 58.98407 | 5.71693 | 430 ft | 95 kts | 332° |
| 2026-04-27 17:29 | 58.98909 | 5.71135 | 693 ft | 95 kts | 331° |